»·PEaware :: N470MA KBUR-KPSP

N470MA :: KBUR-KPSP

FLIGHT INFORMATION

Flight Status: Arrived
Operator: Privately registered:
United States
More flights under this callsign
Pilot: Victor C. (32144)
Aircraft: MOONEY M-20 201 202 205 220 ATS MSE
(M20P)
More flights by this aircraft type
Origin: KBUR Bob Hope-Burbank
United States
Destination: KPSP Palm Springs Intl
United States
More flights between these airports :: More routes between these airports
Route:
File this flight plan on PilotEdge
Remarks:
Altitude:
(Current/Filed)
7,500ft
Speed:
(Current/Filed)
120kts
Departed: 12-Jan-21 11:30 AM
Arrived: 12-Jan-21 12:20 PM
Distance/Time
Traveled:
95nm/0:50
Distance/Time
To Go:
Arrived

Flight Plot

Page will automatically refresh every two minutes.


Map Options




Map Legend


Flown Route
Filed Route
Departure Airport
Arrival Airport
Navaid (VOR, NDB)
Fix

Horizontal Profiles

Position Reports

Time Latitude Longitude Heading Altitude Ground
Speed
12-Jan-21 11:04 34.199425 -118.358947 340 736ft 0kts
12-Jan-21 11:05 34.199425 -118.358947 340 736ft 0kts
12-Jan-21 11:06 34.199425 -118.358947 340 736ft 0kts
12-Jan-21 11:07 34.199425 -118.358947 340 736ft 0kts
12-Jan-21 11:08 34.199425 -118.358947 340 736ft 0kts
12-Jan-21 11:09 34.199425 -118.358947 340 736ft 0kts
12-Jan-21 11:10 34.199425 -118.358947 340 736ft 0kts
12-Jan-21 11:11 34.199425 -118.358947 340 736ft 0kts
12-Jan-21 11:12 34.199425 -118.358947 340 736ft 0kts
12-Jan-21 11:13 34.199425 -118.358947 340 736ft 0kts
12-Jan-21 11:14 34.199425 -118.358947 340 736ft 0kts
12-Jan-21 11:15 34.199425 -118.358947 340 736ft 0kts
12-Jan-21 11:16 34.199425 -118.358947 340 736ft 0kts
12-Jan-21 11:17 34.199425 -118.358947 340 736ft 0kts
12-Jan-21 11:18 34.199425 -118.358947 340 736ft 0kts
12-Jan-21 11:19 34.199425 -118.358947 340 736ft 0kts
12-Jan-21 11:20 34.200532 -118.358351 346 737ft 13kts
12-Jan-21 11:21 34.205157 -118.359619 347 736ft 18kts
12-Jan-21 11:22 34.209212 -118.360749 351 736ft 13kts
12-Jan-21 11:23 34.211986 -118.361415 70 736ft 2kts
12-Jan-21 11:24 34.211972 -118.361366 144 736ft 0kts
12-Jan-21 11:25 34.211972 -118.361366 144 736ft 0kts
12-Jan-21 11:26 34.211972 -118.361366 144 736ft 0kts
12-Jan-21 11:27 34.211966 -118.361341 83 736ft 0kts
12-Jan-21 11:28 34.211976 -118.361321 50 736ft 0kts
12-Jan-21 11:29 34.201803 -118.357369 167 885ft 98kts
12-Jan-21 11:30 34.172953 -118.341241 130 1691ft 135kts
12-Jan-21 11:31 34.157108 -118.302118 110 2266ft 139kts
12-Jan-21 11:32 34.150164 -118.257717 102 2666ft 136kts
12-Jan-21 11:33 34.144893 -118.214167 94 3338ft 117kts
12-Jan-21 11:34 34.144361 -118.179432 92 4284ft 93kts
12-Jan-21 11:35 34.143489 -118.149053 92 5030ft 96kts
12-Jan-21 11:36 34.141752 -118.112172 93 6067ft 124kts
12-Jan-21 11:37 34.139560 -118.067710 92 7069ft 137kts
12-Jan-21 11:38 34.136178 -118.018626 100 7501ft 162kts
12-Jan-21 11:39 34.126209 -117.965403 102 7488ft 159kts
12-Jan-21 11:40 34.116929 -117.919586 102 7465ft 146kts
12-Jan-21 11:41 34.107712 -117.874418 102 7455ft 143kts
12-Jan-21 11:42 34.097562 -117.830960 110 7455ft 142kts
12-Jan-21 11:43 34.085654 -117.797647 113 7455ft 142kts
12-Jan-21 11:44 34.074030 -117.765884 112 7453ft 142kts
12-Jan-21 11:45 34.061612 -117.728826 105 7455ft 142kts
12-Jan-21 11:46 34.052797 -117.686423 102 7527ft 138kts
12-Jan-21 11:47 34.044811 -117.645527 102 7618ft 136kts
12-Jan-21 11:48 34.036454 -117.602613 102 7715ft 135kts
12-Jan-21 11:49 34.027990 -117.559153 102 7816ft 134kts
12-Jan-21 11:50 34.019626 -117.516217 102 7916ft 132kts
12-Jan-21 11:51 34.011224 -117.473064 102 8015ft 131kts
12-Jan-21 11:52 34.002520 -117.428309 102 7701ft 153kts
12-Jan-21 11:53 33.992504 -117.376656 102 7025ft 166kts
12-Jan-21 11:54 33.981598 -117.324693 102 6847ft 144kts
12-Jan-21 11:55 33.971614 -117.283532 102 7311ft 121kts
12-Jan-21 11:56 33.961703 -117.242623 102 7496ft 138kts
12-Jan-21 11:57 33.954873 -117.196082 93 7474ft 143kts
12-Jan-21 11:58 33.951062 -117.148530 92 7476ft 145kts
12-Jan-21 12:00 33.947328 -117.100048 92 7459ft 145kts
12-Jan-21 12:01 33.943567 -117.051312 92 7476ft 146kts
12-Jan-21 12:02 33.939849 -117.002477 92 7486ft 146kts
12-Jan-21 12:03 33.936126 -116.953680 92 7480ft 146kts
12-Jan-21 12:04 33.926851 -116.905685 102 7475ft 147kts
12-Jan-21 12:05 33.918631 -116.857869 84 7375ft 139kts
12-Jan-21 12:06 33.918989 -116.814767 82 7057ft 122kts
12-Jan-21 12:07 33.919928 -116.774626 82 6609ft 123kts
12-Jan-21 12:08 33.921216 -116.731925 82 5820ft 131kts
12-Jan-21 12:09 33.922195 -116.687552 88 5012ft 134kts
12-Jan-21 12:10 33.919536 -116.648298 92 3966ft 104kts
12-Jan-21 12:11 33.918571 -116.614068 92 2883ft 102kts
12-Jan-21 12:12 33.918407 -116.580468 92 1869ft 96kts
12-Jan-21 12:13 33.915096 -116.550940 104 1428ft 82kts
12-Jan-21 12:13 33.907481 -116.529526 134 1538ft 90kts
12-Jan-21 12:15 33.886652 -116.500949 134 1761ft 100kts
12-Jan-21 12:15 33.865654 -116.489534 175 1435ft 105kts
12-Jan-21 12:17 33.835209 -116.480644 153 1369ft 91kts
12-Jan-21 12:17 33.815936 -116.469790 197 1381ft 87kts
12-Jan-21 12:18 33.813780 -116.493714 328 807ft 92kts
12-Jan-21 12:20 33.828350 -116.506818 302 434ft 9kts
12-Jan-21 12:20 33.828738 -116.508244 250 436ft 0kts
12-Jan-21 12:21 33.828738 -116.508244 250 436ft 0kts
12-Jan-21 12:22 33.828539 -116.508500 232 436ft 1kts
12-Jan-21 12:23 33.827097 -116.509279 180 436ft 6kts
12-Jan-21 12:24 33.826222 -116.510166 270 433ft 0kts

Navigation Log

Ident Type
Flight plan parsing failed, navigation log unavailable